createdAt,value
2023-04-15T00:03:42.166Z,99702.75
2023-04-15T00:08:46.568Z,99700.06
2023-04-15T00:13:49.416Z,99702.63
2023-04-15T00:18:52.456Z,99699.69
2023-04-15T00:23:56.936Z,99702.19
2023-04-15T00:28:59.896Z,99692.97
2023-04-15T00:34:03.670Z,99690.44
2023-04-15T00:39:08.197Z,99692.00
2023-04-15T00:44:11.499Z,99689.56
2023-04-15T00:49:14.675Z,99689.28
2023-04-15T00:54:18.925Z,99693.47
2023-04-15T00:59:22.629Z,99690.06
2023-04-15T01:04:26.679Z,99688.16
2023-04-15T01:09:30.999Z,99687.91
2023-04-15T01:14:35.250Z,99694.72
2023-04-15T01:19:38.208Z,99690.44
2023-04-15T01:24:44.089Z,99693.63
2023-04-15T01:29:48.579Z,99687.28
2023-04-15T01:34:51.458Z,99688.91
2023-04-15T01:39:54.339Z,99690.97
2023-04-15T01:45:00.199Z,99691.22
2023-04-15T01:50:02.994Z,99699.34
2023-04-15T01:55:08.037Z,99690.59
2023-04-15T02:00:13.168Z,99695.34
2023-04-15T02:05:18.720Z,99684.91
2023-04-15T02:10:23.563Z,99682.09
2023-04-15T02:15:27.825Z,99678.22
2023-04-15T02:20:32.178Z,99687.81
2023-04-15T02:25:35.046Z,99682.84
2023-04-15T02:30:42.210Z,99692.78
2023-04-15T02:35:45.520Z,99695.22
2023-04-15T02:40:49.764Z,99698.53
2023-04-15T02:45:54.329Z,99698.75
2023-04-15T02:51:12.480Z,99700.81
2023-04-15T02:56:17.126Z,99692.19
2023-04-15T03:01:21.535Z,99693.88
2023-04-15T03:06:24.763Z,99699.38
2023-04-15T03:11:28.202Z,99688.66
2023-04-15T03:16:32.448Z,99696.44
2023-04-15T03:21:35.459Z,99691.44
2023-04-15T03:26:38.933Z,99691.31
2023-04-15T03:31:49.304Z,99680.53
2023-04-15T03:36:52.920Z,99682.56
2023-04-15T03:41:56.453Z,99681.47
2023-04-15T03:47:00.726Z,99705.78
2023-04-15T03:52:03.686Z,99712.78
2023-04-15T03:57:06.584Z,99710.44
2023-04-15T04:02:10.843Z,99718.56
2023-04-15T04:07:16.960Z,99714.16
2023-04-15T04:12:19.814Z,99713.63
2023-04-15T04:17:24.043Z,99711.56
2023-04-15T04:22:26.869Z,99710.94
2023-04-15T04:27:29.740Z,99720.06
2023-04-15T04:32:34.071Z,99725.78
2023-04-15T04:37:36.969Z,99727.09
2023-04-15T04:42:40.258Z,99721.19
2023-04-15T04:47:44.581Z,99720.41
2023-04-15T04:52:47.648Z,99729.41
2023-04-15T04:57:50.647Z,99728.31
2023-04-15T05:02:54.931Z,99730.06
2023-04-15T05:07:58.977Z,99724.91
2023-04-15T05:13:02.499Z,99742.47
2023-04-15T05:18:06.723Z,99740.94
2023-04-15T05:23:09.665Z,99739.13
2023-04-15T05:28:12.614Z,99739.63
2023-04-15T05:33:17.635Z,99740.00
2023-04-15T05:38:20.522Z,99746.13
2023-04-15T05:43:23.380Z,99741.28
2023-04-15T05:48:27.587Z,99747.47
2023-04-15T05:53:30.421Z,99744.16
2023-04-15T05:58:33.325Z,99748.75
2023-04-15T06:03:37.958Z,99765.31
2023-04-15T06:08:40.914Z,99760.13
2023-04-15T06:13:43.866Z,99767.28
2023-04-15T06:18:48.102Z,99773.97
2023-04-15T06:23:51.027Z,99779.19
2023-04-15T06:28:54.038Z,99779.31
2023-04-15T06:33:58.281Z,99786.63
2023-04-15T06:39:01.498Z,99780.28
2023-04-15T06:44:04.869Z,99780.91
2023-04-15T06:49:09.140Z,99783.81
2023-04-15T06:54:12.071Z,99785.63
2023-04-15T06:59:15.351Z,99782.56
2023-04-15T07:04:20.399Z,99784.78
2023-04-15T07:09:23.620Z,99790.84
2023-04-15T07:14:26.647Z,99785.88
2023-04-15T07:19:31.125Z,99790.13
2023-04-15T07:24:34.111Z,99788.06
2023-04-15T07:29:37.060Z,99792.50
2023-04-15T07:34:41.623Z,99805.63
2023-04-15T07:39:44.561Z,99803.19
2023-04-15T07:44:47.508Z,99808.03
2023-04-15T07:49:52.429Z,99822.47
2023-04-15T07:54:55.745Z,99816.41
2023-04-15T07:59:58.660Z,99817.03
2023-04-15T08:05:03.285Z,99814.09
2023-04-15T08:10:07.459Z,99823.03
2023-04-15T08:15:11.206Z,99821.16
2023-04-15T08:20:18.175Z,99829.31
2023-04-15T08:25:21.302Z,99837.84
2023-04-15T08:30:24.575Z,99835.78
2023-04-15T08:35:28.911Z,99827.19
2023-04-15T08:40:41.819Z,99831.91
2023-04-15T08:45:46.788Z,99834.19
2023-04-15T08:50:52.201Z,99834.75
2023-04-15T08:55:58.570Z,99824.06
2023-04-15T09:01:02.190Z,99835.34
2023-04-15T09:06:07.535Z,99837.28
2023-04-15T09:11:10.599Z,99834.88
2023-04-15T09:16:15.786Z,99837.19
2023-04-15T09:21:20.420Z,99840.34
2023-04-15T09:26:32.147Z,99850.06
2023-04-15T09:31:35.042Z,99852.97
2023-04-15T09:36:58.308Z,99861.25
2023-04-15T09:42:09.092Z,99862.94
2023-04-15T09:47:28.482Z,99863.41
2023-04-15T09:52:32.865Z,99871.53
2023-04-15T09:57:37.298Z,99867.41
2023-04-15T10:02:41.905Z,99869.84
2023-04-15T10:07:48.290Z,99874.00
2023-04-15T10:12:53.323Z,99872.91
2023-04-15T10:17:57.527Z,99870.38
2023-04-15T10:23:02.956Z,99864.78
2023-04-15T10:28:07.618Z,99872.69
2023-04-15T10:33:11.317Z,99884.50
2023-04-15T10:38:35.061Z,99879.97
2023-04-15T10:43:38.584Z,99877.56
2023-04-15T10:48:48.800Z,99880.84
2023-04-15T10:53:57.728Z,99890.19
2023-04-15T10:59:02.086Z,99894.09
2023-04-15T11:04:05.245Z,99889.09
2023-04-15T11:09:09.723Z,99894.81
2023-04-15T11:14:16.644Z,99887.41
2023-04-15T11:19:19.665Z,99899.56
2023-04-15T11:24:27.438Z,99904.06
2023-04-15T11:29:32.171Z,99907.84
2023-04-15T11:34:36.114Z,99906.50
2023-04-15T11:39:40.615Z,99909.81
2023-04-15T11:44:43.487Z,99924.28
2023-04-15T11:49:46.382Z,99925.47
2023-04-15T11:54:50.631Z,99936.78
2023-04-15T11:59:56.203Z,99936.78
2023-04-15T12:05:05.288Z,99928.91
2023-04-15T12:10:09.677Z,99946.63
2023-04-15T12:15:12.497Z,99945.06
2023-04-15T12:20:16.861Z,99955.41
2023-04-15T12:25:21.111Z,99956.00
2023-04-15T12:30:24.105Z,99973.53
2023-04-15T12:35:26.898Z,99980.22
2023-04-15T12:40:31.204Z,99979.84
2023-04-15T12:45:34.177Z,99986.94
2023-04-15T12:50:37.243Z,99990.09
2023-04-15T12:55:41.724Z,99997.88
2023-04-15T13:00:44.819Z,100008.56
2023-04-15T13:05:47.741Z,100002.47
2023-04-15T13:10:52.008Z,100006.63
2023-04-15T13:15:54.992Z,100013.44
2023-04-15T13:20:57.948Z,100004.81
2023-04-15T13:26:02.241Z,100008.94
2023-04-15T13:31:06.050Z,100018.84
2023-04-15T13:36:09.578Z,100024.09
2023-04-15T13:41:13.796Z,100028.22
2023-04-15T13:46:16.822Z,100034.19
2023-04-15T13:51:19.712Z,100037.94
2023-04-15T13:56:23.925Z,100049.13
2023-04-15T14:01:27.217Z,100046.72
2023-04-15T14:06:31.618Z,100056.63
2023-04-15T14:11:36.755Z,100055.56
2023-04-15T14:16:40.150Z,100063.88
2023-04-15T14:21:43.047Z,100068.28
2023-04-15T14:26:47.241Z,100072.09
2023-04-15T14:32:04.268Z,100083.72
2023-04-15T14:37:12.701Z,100086.28
2023-04-15T14:42:16.963Z,100092.16
2023-04-15T14:47:19.942Z,100116.50
2023-04-15T14:52:22.840Z,100114.53
2023-04-15T14:57:27.026Z,100120.75
2023-04-15T15:07:36.106Z,100131.22
2023-04-15T15:12:40.306Z,100129.91
2023-04-15T15:17:43.288Z,100141.38
2023-04-15T15:22:46.272Z,100151.59
2023-04-15T15:27:50.814Z,100152.19
2023-04-15T15:32:53.857Z,100160.34
2023-04-15T15:37:56.715Z,100162.56
2023-04-15T15:43:00.935Z,100180.31
2023-04-15T15:48:03.950Z,100179.22
2023-04-15T15:53:06.831Z,100189.94
2023-04-15T15:58:11.010Z,100195.03
2023-04-15T16:03:14.182Z,100199.66
2023-04-15T16:08:17.114Z,100211.00
2023-04-15T16:13:21.354Z,100219.41
2023-04-15T16:18:24.161Z,100216.63
2023-04-15T16:23:27.096Z,100207.91
2023-04-15T16:28:31.324Z,100222.03
2023-04-15T16:33:34.172Z,100215.84
2023-04-15T16:38:36.962Z,100230.41
2023-04-15T16:43:41.206Z,100236.88
2023-04-15T16:48:44.026Z,100252.34
2023-04-15T16:53:46.927Z,100251.84
2023-04-15T16:58:51.072Z,100254.41
2023-04-15T17:03:56.058Z,100253.78
2023-04-15T17:08:59.054Z,100263.38
2023-04-15T17:14:03.578Z,100267.66
2023-04-15T17:19:06.589Z,100274.75
2023-04-15T17:24:09.427Z,100283.00
2023-04-15T17:29:13.646Z,100284.28
2023-04-15T17:34:16.510Z,100280.22
2023-04-15T17:39:19.417Z,100283.00
2023-04-15T17:44:25.208Z,100299.81
2023-04-15T17:49:28.456Z,100298.47
2023-04-15T17:54:31.264Z,100307.16
2023-04-15T17:59:35.456Z,100312.97
2023-04-15T18:04:40.521Z,100318.41
2023-04-15T18:09:44.295Z,100325.41
2023-04-15T18:14:48.495Z,100331.72
2023-04-15T18:19:51.601Z,100336.16
2023-04-15T18:24:54.593Z,100346.03
2023-04-15T18:29:58.857Z,100339.81
2023-04-15T18:35:02.008Z,100355.66
2023-04-15T18:40:05.731Z,100363.72
2023-04-15T18:45:10.874Z,100373.81
2023-04-15T18:50:13.698Z,100389.25
2023-04-15T18:55:19.083Z,100393.19
2023-04-15T19:00:23.499Z,100394.69
2023-04-15T19:05:27.071Z,100407.66
2023-04-15T19:10:29.947Z,100410.66
2023-04-15T19:15:34.149Z,100415.38
2023-04-15T19:20:39.197Z,100430.56
2023-04-15T19:25:42.839Z,100430.34
2023-04-15T19:30:47.199Z,100433.41
2023-04-15T19:35:50.366Z,100447.78
2023-04-15T19:40:53.250Z,100453.53
2023-04-15T19:45:57.511Z,100455.66
2023-04-15T19:51:00.608Z,100472.50
2023-04-15T19:56:03.550Z,100464.84
2023-04-15T20:01:07.949Z,100455.41
2023-04-15T20:06:10.914Z,100461.47
2023-04-15T20:11:15.189Z,100472.88
2023-04-15T20:16:19.536Z,100458.66
2023-04-15T20:21:22.834Z,100461.63
2023-04-15T20:26:25.865Z,100470.28
2023-04-15T20:31:31.213Z,100468.66
2023-04-15T20:36:34.322Z,100476.69
2023-04-15T20:41:37.158Z,100477.25
2023-04-15T20:46:41.543Z,100468.97
2023-04-15T20:51:44.453Z,100481.16
2023-04-15T20:56:47.283Z,100494.44
2023-04-15T21:01:52.298Z,100487.25
2023-04-15T21:06:55.489Z,100482.28
2023-04-15T21:12:01.750Z,100487.63
2023-04-15T21:22:43.490Z,100500.56
2023-04-15T21:27:46.167Z,100502.34
2023-04-15T21:32:49.059Z,100503.00
2023-04-15T21:37:53.284Z,100515.75
2023-04-15T21:42:56.157Z,100511.28
2023-04-15T21:48:07.260Z,100529.59
2023-04-15T21:53:13.027Z,100538.56
2023-04-15T21:58:15.952Z,100543.44
2023-04-15T22:03:19.310Z,100545.31
2023-04-15T22:08:23.772Z,100542.66
2023-04-15T22:13:26.885Z,100552.72
2023-04-15T22:18:29.823Z,100557.31
2023-04-15T22:23:34.004Z,100560.13
2023-04-15T22:28:36.910Z,100558.97
2023-04-15T22:33:39.879Z,100559.69
2023-04-15T22:38:44.091Z,100562.38
2023-04-15T22:43:47.232Z,100565.41
2023-04-15T22:48:50.159Z,100576.44
2023-04-15T22:53:54.703Z,100585.41
2023-04-15T22:58:57.536Z,100597.31
2023-04-15T23:04:05.992Z,100593.13
2023-04-15T23:09:24.769Z,100599.16
2023-04-15T23:14:28.070Z,100601.16
2023-04-15T23:19:30.923Z,100606.13
2023-04-15T23:24:35.169Z,100600.75
2023-04-15T23:29:37.998Z,100609.44
2023-04-15T23:34:40.918Z,100612.09
2023-04-15T23:39:45.170Z,100607.72
2023-04-15T23:44:48.027Z,100608.78
2023-04-15T23:49:50.860Z,100614.69
2023-04-15T23:54:55.104Z,100609.91
2023-04-15T23:59:57.925Z,100617.44
